Time;durP1;ratioP1;P1;durP2;ratioP2;P2;SDS_P1;SDS_P2;PMS_P1;PMS_P2;Temp;Humidity;BMP_temperature;BMP_pressure;BME280_temperature;BME280_humidity;BME280_pressure;Samples;Min_cycle;Max_cycle;Signal;HPM_P1;HPM_P2
2020/12/18 00:02:26;;;;;;;3.55;1.52;;;;;;;-9.89;92.22;101279.38;4981199;28;20054;-68
2020/12/18 00:05:12;;;;;;;5.35;2.40;;;;;;;-9.81;92.85;101283.00;5007615;28;20121;-71
2020/12/18 00:08:00;;;;;;;6.10;2.55;;;;;;;-9.71;93.08;101276.50;4993259;28;20047;-70
2020/12/18 00:10:46;;;;;;;3.33;1.85;;;;;;;-9.63;93.13;101271.66;4993942;28;20120;-70
2020/12/18 00:13:33;;;;;;;6.28;1.88;;;;;;;-9.57;94.28;101260.00;4992786;28;20100;-69
2020/12/18 00:16:21;;;;;;;6.00;2.45;;;;;;;-9.45;94.40;101269.56;4981880;28;20405;-70
2020/12/18 00:19:08;;;;;;;9.43;2.78;;;;;;;-9.38;93.77;101263.00;4972576;28;20524;-67
2020/12/18 00:21:58;;;;;;;5.47;2.30;;;;;;;-9.30;94.30;101266.59;4967916;28;20046;-69
2020/12/18 00:24:44;;;;;;;4.88;2.35;;;;;;;-9.24;93.07;101273.47;4974018;28;20059;-69
2020/12/18 00:27:30;;;;;;;8.25;2.38;;;;;;;-9.22;93.00;101267.63;4973080;28;20568;-69
2020/12/18 00:30:17;;;;;;;6.55;2.33;;;;;;;-9.19;93.36;101257.56;4973633;28;20375;-69
2020/12/18 00:33:04;;;;;;;6.75;2.40;;;;;;;-9.13;93.50;101256.88;4970856;28;20055;-67
2020/12/18 00:35:50;;;;;;;6.80;2.63;;;;;;;-9.09;93.56;101258.66;4972487;28;20101;-67
2020/12/18 00:38:37;;;;;;;4.47;1.73;;;;;;;-9.06;92.52;101253.66;4988143;28;20046;-68
2020/12/18 00:41:23;;;;;;;5.03;1.65;;;;;;;-9.03;92.60;101253.72;4977873;28;20078;-68
2020/12/18 00:44:09;;;;;;;3.83;1.70;;;;;;;-9.01;92.62;101251.25;4971896;28;20106;-66
2020/12/18 00:46:56;;;;;;;9.02;5.47;;;;;;;-9.01;93.42;101244.50;4971594;28;20085;-68
2020/12/18 00:49:42;;;;;;;5.90;1.88;;;;;;;-8.99;93.02;101244.53;4967100;28;20051;-66
2020/12/18 00:52:29;;;;;;;6.40;1.85;;;;;;;-8.99;92.63;101247.91;4960186;28;20070;-67
2020/12/18 00:55:15;;;;;;;6.05;2.08;;;;;;;-8.95;92.98;101244.63;4960008;28;20137;-67
2020/12/18 00:58:03;;;;;;;6.43;2.30;;;;;;;-8.94;92.97;101250.56;4939894;29;20458;-68
2020/12/18 01:00:50;;;;;;;13.13;3.05;;;;;;;-8.95;93.16;101241.25;4951481;28;20047;-69
2020/12/18 01:03:40;;;;;;;8.35;2.30;;;;;;;-8.95;92.84;101241.25;4951140;28;20510;-69
2020/12/18 01:06:27;;;;;;;5.72;1.85;;;;;;;-8.95;92.81;101238.72;4968834;28;20058;-67
2020/12/18 01:09:18;;;;;;;5.22;1.85;;;;;;;-8.94;93.03;101241.28;4955840;28;20055;-67
2020/12/18 01:12:05;;;;;;;4.75;1.75;;;;;;;-8.94;92.46;101238.75;4983217;28;20615;-66
2020/12/18 01:14:52;;;;;;;5.47;2.63;;;;;;;-8.92;93.50;101236.25;4958007;28;20099;-69
2020/12/18 01:17:38;;;;;;;7.07;2.63;;;;;;;-8.88;92.41;101233.81;4970686;28;20043;-66
2020/12/18 01:20:25;;;;;;;5.03;2.15;;;;;;;-8.89;92.89;101224.50;4964514;28;20106;-66
2020/12/18 01:23:11;;;;;;;7.25;2.38;;;;;;;-8.80;92.58;101223.84;4956016;28;20090;-68
2020/12/18 01:25:59;;;;;;;5.70;2.20;;;;;;;-8.79;93.78;101228.09;4959726;28;20047;-67
2020/12/18 01:28:46;;;;;;;5.55;1.95;;;;;;;-8.72;93.33;101224.88;4940605;28;20047;-67
2020/12/18 01:31:33;;;;;;;3.38;1.85;;;;;;;-8.69;93.50;101216.47;4952295;28;20063;-67
2020/12/18 01:34:19;;;;;;;3.70;1.83;;;;;;;-8.64;94.60;101220.84;4938857;28;20077;-69
2020/12/18 01:37:06;;;;;;;7.75;2.42;;;;;;;-8.60;93.92;101227.66;4956166;28;20047;-68
2020/12/18 01:40:04;;;;;;;5.05;2.30;;;;;;;-8.57;93.74;101224.34;4971204;28;20521;-67
2020/12/18 01:42:58;;;;;;;4.50;2.33;;;;;;;-8.56;94.09;101226.91;4953423;29;20043;-69
2020/12/18 01:45:45;;;;;;;4.82;2.17;;;;;;;-8.57;93.99;101226.88;4939600;28;20046;-68
2020/12/18 01:48:34;;;;;;;5.13;1.90;;;;;;;-8.54;93.37;101227.81;4966718;28;20048;-67
2020/12/18 01:51:26;;;;;;;8.45;2.72;;;;;;;-8.52;93.22;101225.31;4972564;28;20058;-68
2020/12/18 01:54:16;;;;;;;8.20;2.17;;;;;;;-8.52;93.69;101218.56;4970722;28;20058;-69
2020/12/18 01:57:04;;;;;;;4.03;1.67;;;;;;;-8.52;94.11;101210.94;4956326;28;20054;-67
2020/12/18 02:00:07;;;;;;;4.03;1.77;;;;;;;-8.50;93.34;101210.97;4972371;28;20050;-66
2020/12/18 02:03:02;;;;;;;5.07;1.90;;;;;;;-8.49;93.60;101212.69;4972150;28;20552;-66
2020/12/18 02:06:17;;;;;;;4.10;1.73;;;;;;;-8.48;93.06;101222.03;4958709;28;20042;-67
2020/12/18 02:09:10;;;;;;;5.30;2.10;;;;;;;-8.48;93.38;101216.09;4970086;28;20118;-69
2020/12/18 02:12:03;;;;;;;5.53;1.88;;;;;;;-8.48;93.35;101213.56;4958599;28;20097;-70
2020/12/18 02:14:53;;;;;;;5.25;2.13;;;;;;;-8.46;93.54;101214.44;4970800;28;20062;-66
2020/12/18 02:17:42;;;;;;;4.47;1.52;;;;;;;-8.47;92.77;101211.03;4958460;28;20070;-69
2020/12/18 02:20:29;;;;;;;3.30;1.70;;;;;;;-8.46;93.52;101224.56;4965925;28;20078;-69
2020/12/18 02:23:18;;;;;;;4.28;1.90;;;;;;;-8.43;93.65;101224.66;4970946;28;20057;-68
2020/12/18 02:26:07;;;;;;;3.78;1.52;;;;;;;-8.41;92.59;101221.31;4969691;28;20453;-66
2020/12/18 02:28:56;;;;;;;7.35;1.65;;;;;;;-8.41;92.78;101217.91;4964909;28;20055;-69
2020/12/18 02:31:50;;;;;;;4.15;1.58;;;;;;;-8.37;93.14;101217.16;4939044;28;20052;-66
2020/12/18 02:34:46;;;;;;;4.93;1.45;;;;;;;-8.37;93.11;101210.41;4956705;28;20053;-68
2020/12/18 02:37:43;;;;;;;4.60;1.52;;;;;;;-8.37;93.31;101205.34;4963059;28;20083;-66
2020/12/18 02:40:39;;;;;;;4.38;1.70;;;;;;;-8.38;92.32;101210.38;4939270;28;20106;-69
2020/12/18 02:43:44;;;;;;;;;;;;;;;-8.43;93.04;101205.22;4970187;28;20050;-67
2020/12/18 02:46:32;;;;;;;3.72;1.30;;;;;;;-8.42;92.73;101206.91;4958723;28;19996;-66
2020/12/18 02:49:18;;;;;;;5.38;1.60;;;;;;;-8.38;93.18;101208.69;4967502;28;20105;-69
2020/12/18 02:52:09;;;;;;;4.97;1.63;;;;;;;-8.38;92.99;101207.84;4981322;28;20505;-68
2020/12/18 02:55:18;;;;;;;3.28;1.50;;;;;;;-8.36;93.17;101221.41;4998346;28;20077;-69
2020/12/18 02:58:25;;;;;;;4.35;1.45;;;;;;;-8.42;92.54;101224.66;4988760;28;20054;-69
2020/12/18 03:01:14;;;;;;;4.13;2.25;;;;;;;-8.46;93.00;101219.50;4968274;28;20061;-67
2020/12/18 03:04:03;;;;;;;3.45;1.70;;;;;;;-8.49;93.79;101217.78;4986948;28;20439;-68
2020/12/18 03:07:13;;;;;;;2.88;1.35;;;;;;;-8.49;93.92;101217.78;5010959;28;20046;-68
2020/12/18 03:10:00;;;;;;;5.45;1.33;;;;;;;-8.53;93.20;101219.38;5000510;28;20042;-67
2020/12/18 03:12:48;;;;;;;2.92;1.60;;;;;;;-8.54;93.08;101212.59;5001230;28;20123;-67
2020/12/18 03:15:34;;;;;;;3.13;1.20;;;;;;;-8.51;93.63;101216.88;4996833;28;20038;-68
2020/12/18 03:18:38;;;;;;;2.65;1.45;;;;;;;-8.49;93.46;101217.78;4981047;28;20046;-69
2020/12/18 03:21:31;;;;;;;2.93;1.20;;;;;;;-8.51;93.45;101206.72;4992937;28;20047;-68
2020/12/18 03:24:53;;;;;;;3.42;1.52;;;;;;;-8.45;93.52;101213.59;4991717;28;20772;-68
2020/12/18 03:27:59;;;;;;;3.28;1.50;;;;;;;-8.44;93.59;101206.03;4993474;28;20050;-69
2020/12/18 03:30:47;;;;;;;3.10;1.65;;;;;;;-8.45;93.98;101208.53;5000301;28;20049;-67
2020/12/18 03:33:33;;;;;;;2.55;1.40;;;;;;;-8.43;93.79;101207.75;4993885;28;20575;-68
2020/12/18 03:36:36;;;;;;;2.42;1.10;;;;;;;-8.42;93.95;101209.47;4997982;28;20485;-70
2020/12/18 03:39:25;;;;;;;3.25;1.73;;;;;;;-8.40;93.09;101206.94;4997784;28;20069;-68
2020/12/18 03:42:35;;;;;;;6.70;2.38;;;;;;;-8.38;93.98;101212.91;5000815;28;20053;-67
2020/12/18 03:45:22;;;;;;;2.30;1.13;;;;;;;-8.39;93.96;101211.22;4999982;28;20113;-69
2020/12/18 03:48:29;;;;;;;3.35;1.50;;;;;;;-8.37;93.97;101207.88;4995544;28;20046;-69
2020/12/18 03:51:36;;;;;;;2.08;1.10;;;;;;;-8.34;93.22;101207.91;5010831;28;20053;-69
2020/12/18 03:54:23;;;;;;;4.97;1.25;;;;;;;-8.33;93.91;101211.28;4986497;28;20407;-70
2020/12/18 03:57:32;;;;;;;8.23;1.58;;;;;;;-8.32;93.24;101213.84;5002919;28;20053;-69
2020/12/18 04:00:39;;;;;;;8.20;1.60;;;;;;;-8.32;93.23;101203.72;4992974;28;20181;-69
2020/12/18 04:03:28;;;;;;;4.47;1.52;;;;;;;-8.28;93.12;101202.09;4976445;28;20077;-67
2020/12/18 04:06:15;;;;;;;3.33;1.08;;;;;;;-8.30;93.01;101206.28;4966409;28;20409;-69
2020/12/18 04:09:03;;;;;;;4.10;1.15;;;;;;;-8.31;93.34;101209.63;4967042;28;20485;-68
2020/12/18 04:11:57;;;;;;;4.30;1.48;;;;;;;-8.29;93.40;101203.78;4967400;28;20394;-68
2020/12/18 04:15:03;;;;;;;1.15;0.80;;;;;;;-8.31;92.67;101205.44;4973449;28;20057;-67
2020/12/18 04:18:03;;;;;;;3.25;1.17;;;;;;;-8.34;92.47;101192.69;4980428;28;20046;-67
2020/12/18 04:20:49;;;;;;;4.65;0.88;;;;;;;-8.31;92.91;101199.47;4966760;28;20397;-69
2020/12/18 04:24:00;;;;;;;1.88;0.90;;;;;;;-8.35;92.56;101193.53;4979308;28;20397;-68
2020/12/18 04:26:50;;;;;;;1.90;0.98;;;;;;;-8.36;91.91;101189.25;4975844;28;20057;-68
2020/12/18 04:29:37;;;;;;;1.40;0.70;;;;;;;-8.38;91.84;101192.63;4980040;28;20097;-69
2020/12/18 04:32:26;;;;;;;2.80;0.90;;;;;;;-8.39;92.61;101190.91;4985094;28;20108;-70
2020/12/18 04:35:12;;;;;;;4.72;1.10;;;;;;;-8.41;91.87;101190.88;4998840;28;20116;-68
2020/12/18 04:38:19;;;;;;;2.10;0.75;;;;;;;-8.47;92.47;101185.69;5004505;28;20057;-68
2020/12/18 04:41:17;;;;;;;3.15;1.10;;;;;;;-8.43;92.12;101191.69;4981512;28;20058;-69
2020/12/18 04:44:15;;;;;;;3.78;1.00;;;;;;;-8.43;92.82;101186.59;4976461;28;20398;-67
2020/12/18 04:47:28;;;;;;;3.30;1.02;;;;;;;-8.43;92.38;101191.69;5008255;28;20042;-67
2020/12/18 04:50:15;;;;;;;2.40;0.82;;;;;;;-8.41;92.61;101195.09;4998081;28;20058;-68
2020/12/18 04:53:26;;;;;;;1.70;0.82;;;;;;;-8.45;92.61;101190.78;4997344;28;20038;-68
2020/12/18 04:56:44;;;;;;;2.13;0.90;;;;;;;-8.41;92.53;101190.03;4979089;28;20054;-67
2020/12/18 04:59:42;;;;;;;1.20;0.70;;;;;;;-8.39;92.26;101185.84;4995234;28;20443;-67
2020/12/18 05:02:44;;;;;;;3.40;0.93;;;;;;;-8.38;92.18;101187.56;4996017;28;20057;-69
2020/12/18 05:05:31;;;;;;;2.80;1.02;;;;;;;-8.34;93.11;101194.38;4997940;28;20052;-67
2020/12/18 05:08:26;;;;;;;2.70;0.80;;;;;;;-8.36;92.50;101189.25;4978410;28;20053;-68
2020/12/18 05:11:24;;;;;;;2.60;0.65;;;;;;;-8.32;92.83;101187.63;4965420;28;20437;-69
2020/12/18 05:14:28;;;;;;;1.77;1.00;;;;;;;-8.31;92.89;101189.34;4989271;28;20065;-69
2020/12/18 05:17:23;;;;;;;3.28;1.02;;;;;;;-8.29;92.38;101188.56;4998551;28;20100;-67
2020/12/18 05:20:10;;;;;;;1.08;0.60;;;;;;;-8.29;92.01;101191.09;4985006;28;20053;-67
2020/12/18 05:23:15;;;;;;;5.43;1.00;;;;;;;-8.26;92.86;101183.56;5009573;28;20404;-70
2020/12/18 05:26:28;;;;;;;2.42;0.88;;;;;;;-8.27;91.94;101184.34;5008150;28;20053;-70
2020/12/18 05:29:19;;;;;;;4.85;1.27;;;;;;;-8.26;92.26;101181.03;4980824;28;20484;-68
2020/12/18 05:32:32;;;;;;;2.58;0.90;;;;;;;-8.23;92.68;101182.75;4995304;28;20069;-67
2020/12/18 05:35:20;;;;;;;1.90;0.95;;;;;;;-8.26;92.28;101181.03;4994530;28;20531;-69
2020/12/18 05:38:22;;;;;;;6.47;0.95;;;;;;;-8.26;92.77;101178.47;4991276;28;20551;-67
2020/12/18 05:41:25;;;;;;;3.20;0.85;;;;;;;-8.25;92.99;101182.72;4978085;28;20053;-71
2020/12/18 05:44:12;;;;;;;1.55;0.90;;;;;;;-8.22;92.42;101183.59;4992147;28;20140;-70
2020/12/18 05:47:26;;;;;;;3.75;0.90;;;;;;;-8.22;91.88;101183.59;4977889;28;20057;-67
2020/12/18 05:50:18;;;;;;;1.95;1.02;;;;;;;-8.21;92.63;101182.75;4963991;28;20057;-69
2020/12/18 05:53:07;;;;;;;3.45;1.00;;;;;;;-8.20;92.95;101171.81;4975125;28;20050;-69
2020/12/18 05:56:31;;;;;;;4.38;0.82;;;;;;;-8.17;93.01;101167.63;4980714;28;20057;-69
2020/12/18 05:59:21;;;;;;;3.53;1.10;;;;;;;-8.19;92.77;101164.22;4996934;28;20058;-66
2020/12/18 06:02:28;;;;;;;3.40;0.90;;;;;;;-8.19;92.47;101160.84;4996895;28;20042;-66
2020/12/18 06:05:45;;;;;;;1.95;0.98;;;;;;;-8.19;92.28;101150.69;4976310;28;20137;-67
2020/12/18 06:08:42;;;;;;;3.85;1.10;;;;;;;-8.19;93.21;101143.94;4979030;28;20049;-68
2020/12/18 06:11:31;;;;;;;3.03;1.30;;;;;;;-8.18;93.26;101152.38;4997637;28;20050;-66
2020/12/18 06:14:26;;;;;;;2.65;1.15;;;;;;;-8.19;92.38;101138.84;4997023;28;20053;-66
2020/12/18 06:17:35;;;;;;;2.47;0.98;;;;;;;-8.20;93.06;101136.28;4996723;28;20444;-67
2020/12/18 06:20:25;;;;;;;1.98;0.93;;;;;;;-8.21;92.86;101140.53;4995815;28;20128;-69
2020/12/18 06:23:14;;;;;;;2.28;0.90;;;;;;;-8.21;92.92;101142.16;4996974;28;20534;-68
2020/12/18 06:26:19;;;;;;;2.95;1.13;;;;;;;-8.21;92.51;101147.25;4980337;28;20081;-66
2020/12/18 06:29:28;;;;;;;3.25;0.93;;;;;;;-8.24;92.83;101150.59;4994963;28;20049;-68
2020/12/18 06:32:44;;;;;;;4.03;1.38;;;;;;;-8.23;92.82;101149.75;4987769;28;20152;-69
2020/12/18 06:36:00;;;;;;;2.58;0.90;;;;;;;-8.20;92.71;101161.66;4974800;28;20059;-68
2020/12/18 06:38:49;;;;;;;6.25;1.95;;;;;;;-8.20;92.78;101159.97;4995517;28;20054;-69
2020/12/18 06:42:24;;;;;;;2.88;0.98;;;;;;;-8.18;92.70;101154.94;4997192;28;20045;-67
2020/12/18 06:45:37;;;;;;;2.95;0.95;;;;;;;-8.19;92.94;101156.59;4984180;28;20050;-66
2020/12/18 06:48:50;;;;;;;3.28;1.00;;;;;;;-8.20;92.37;101161.66;5007664;28;20050;-67
2020/12/18 06:52:03;;;;;;;1.50;0.90;;;;;;;-8.20;91.93;101161.66;4995687;28;20085;-68
2020/12/18 06:55:08;;;;;;;5.20;1.98;;;;;;;-8.25;92.21;101156.50;4976760;28;20050;-67
2020/12/18 06:58:28;;;;;;;4.20;1.08;;;;;;;-8.25;92.58;101162.44;4993941;28;20054;-66
2020/12/18 07:01:29;;;;;;;2.42;1.00;;;;;;;-8.28;92.38;101169.97;5008141;28;20054;-68
2020/12/18 07:04:23;;;;;;;3.03;1.33;;;;;;;-8.27;92.28;101160.69;4994261;28;20056;-68
2020/12/18 07:07:21;;;;;;;2.90;0.90;;;;;;;-8.31;92.20;101164.84;4996631;28;20046;-67
2020/12/18 07:10:08;;;;;;;2.28;1.00;;;;;;;-8.27;92.46;101163.22;5007433;28;20136;-68
2020/12/18 07:12:58;;;;;;;3.50;1.10;;;;;;;-8.27;92.42;101165.75;4996388;28;20092;-67
2020/12/18 07:15:48;;;;;;;2.17;0.95;;;;;;;-8.28;92.56;101162.34;4996282;28;20064;-68
2020/12/18 07:18:37;;;;;;;1.58;0.88;;;;;;;-8.27;92.39;101160.69;4993042;28;20100;-66
2020/12/18 07:21:24;;;;;;;3.35;1.30;;;;;;;-8.27;92.34;101156.44;4977335;28;20453;-67
2020/12/18 07:24:11;;;;;;;4.85;1.00;;;;;;;-8.29;92.21;101170.81;4987022;28;20042;-67
2020/12/18 07:26:57;;;;;;;2.97;0.90;;;;;;;-8.30;91.88;101166.56;4979915;28;20129;-68
2020/12/18 07:29:44;;;;;;;3.60;1.20;;;;;;;-8.31;92.08;101166.50;4993970;28;20057;-68
2020/12/18 07:32:31;;;;;;;2.17;1.20;;;;;;;-8.32;92.14;101170.72;4979171;28;20547;-68
2020/12/18 07:35:17;;;;;;;3.97;1.20;;;;;;;-8.33;92.40;101169.03;4979940;28;20109;-66
2020/12/18 07:38:28;;;;;;;3.20;1.08;;;;;;;-8.29;91.71;101167.41;4991104;28;20125;-66
2020/12/18 07:41:17;;;;;;;2.70;0.95;;;;;;;-8.28;92.04;101169.13;4993586;28;20057;-69
2020/12/18 07:44:08;;;;;;;5.22;1.40;;;;;;;-8.30;91.79;101170.78;4996939;28;20145;-68
2020/12/18 07:46:55;;;;;;;4.97;1.30;;;;;;;-8.30;91.76;101171.63;4980188;28;20042;-66
2020/12/18 07:49:43;;;;;;;3.13;1.10;;;;;;;-8.27;92.64;101173.34;4980638;28;20050;-68
2020/12/18 07:52:30;;;;;;;3.05;1.27;;;;;;;-8.26;92.47;101168.34;4981048;28;20113;-68
2020/12/18 07:55:16;;;;;;;3.55;1.30;;;;;;;-8.25;92.04;101177.66;4992070;28;20076;-67
2020/12/18 07:58:03;;;;;;;2.65;1.10;;;;;;;-8.23;92.57;101165.00;5010832;28;20100;-68
2020/12/18 08:01:03;;;;;;;2.65;1.30;;;;;;;-8.21;92.12;101165.00;5012279;28;20085;-67
2020/12/18 08:03:51;;;;;;;3.40;1.30;;;;;;;-8.21;91.92;101165.00;4999878;28;20104;-70
2020/12/18 08:06:39;;;;;;;2.90;1.20;;;;;;;-8.23;92.03;101166.66;4999485;28;20050;-68
2020/12/18 08:09:26;;;;;;;3.42;1.45;;;;;;;-8.21;91.74;101159.94;4999037;28;20042;-68
2020/12/18 08:12:12;;;;;;;3.75;1.40;;;;;;;-8.15;92.08;101160.91;4996778;28;20509;-69
2020/12/18 08:15:11;;;;;;;3.25;1.48;;;;;;;-8.15;91.54;101157.53;4998990;28;20057;-67
2020/12/18 08:17:58;;;;;;;6.03;2.30;;;;;;;-8.19;92.35;101151.53;4999437;28;20497;-69
2020/12/18 08:20:45;;;;;;;6.88;2.10;;;;;;;-8.20;92.54;101157.44;4998001;28;20050;-68
2020/12/18 08:23:36;;;;;;;7.82;3.03;;;;;;;-8.21;92.08;101153.19;4998359;28;20081;-68
2020/12/18 08:26:23;;;;;;;6.68;2.13;;;;;;;-8.25;91.53;101149.75;5011046;28;20135;-66
2020/12/18 08:29:10;;;;;;;9.25;3.45;;;;;;;-8.30;91.74;101147.94;4998823;28;20081;-68
2020/12/18 08:32:00;;;;;;;4.97;2.33;;;;;;;-8.39;91.43;101143.59;4998865;28;20054;-69
2020/12/18 08:34:49;;;;;;;7.10;2.90;;;;;;;-8.43;91.84;101148.56;4997224;28;20046;-67
2020/12/18 08:37:36;;;;;;;6.38;2.78;;;;;;;-8.51;91.27;101146.72;4996820;28;20088;-68
2020/12/18 08:40:24;;;;;;;8.60;2.75;;;;;;;-8.49;91.52;101146.78;4979725;28;20055;-67
2020/12/18 08:43:11;;;;;;;8.02;2.90;;;;;;;-8.59;91.46;101137.25;4997379;28;20515;-68
2020/12/18 08:45:57;;;;;;;5.15;2.35;;;;;;;-8.60;91.94;101138.06;4994824;28;20516;-66
2020/12/18 08:48:44;;;;;;;7.93;2.60;;;;;;;-8.59;91.89;101142.31;4999016;28;20511;-66
2020/12/18 08:51:32;;;;;;;5.20;2.70;;;;;;;-8.60;92.29;101135.53;4997115;28;20081;-67
2020/12/18 08:54:33;;;;;;;6.05;2.60;;;;;;;-8.63;92.00;101132.97;5009638;28;20116;-66
2020/12/18 08:57:25;;;;;;;8.52;2.53;;;;;;;-8.64;91.81;101136.31;5012273;28;20127;-70
2020/12/18 09:00:13;;;;;;;11.50;3.30;;;;;;;-8.66;91.88;101121.06;5012815;28;20130;-69
2020/12/18 09:03:01;;;;;;;11.68;3.20;;;;;;;-8.68;91.34;101122.72;4999102;28;20115;-66
2020/12/18 09:05:48;;;;;;;7.68;2.65;;;;;;;-8.71;91.31;101122.66;4995329;28;20046;-68
2020/12/18 09:08:34;;;;;;;7.65;2.85;;;;;;;-8.73;91.28;101120.91;4998889;28;20576;-67
2020/12/18 09:11:24;;;;;;;25.35;19.95;;;;;;;-8.72;91.71;101117.56;4998700;28;20448;-67
2020/12/18 09:14:25;;;;;;;9.48;3.85;;;;;;;-8.75;91.48;101118.34;4998232;28;20141;-68
2020/12/18 09:17:16;;;;;;;6.45;3.17;;;;;;;-8.79;91.66;101116.56;4990872;28;20142;-68
2020/12/18 09:20:03;;;;;;;9.98;3.03;;;;;;;-8.78;91.78;101116.63;4978975;28;20433;-69
2020/12/18 09:22:59;;;;;;;6.93;3.15;;;;;;;-8.75;91.99;101109.88;4996291;28;20046;-69
2020/12/18 09:25:50;;;;;;;6.30;2.92;;;;;;;-8.78;91.74;101115.75;4998322;28;20053;-69
2020/12/18 09:28:41;;;;;;;5.63;2.70;;;;;;;-8.78;91.87;101116.63;5010405;28;20092;-66
2020/12/18 09:31:27;;;;;;;11.32;3.10;;;;;;;-8.81;91.73;101116.53;4997622;28;20042;-68
2020/12/18 09:34:15;;;;;;;7.75;2.90;;;;;;;-8.79;90.93;101126.69;4996931;28;20057;-69
2020/12/18 09:37:11;;;;;;;8.35;3.40;;;;;;;-8.79;91.01;101112.34;4994399;28;20053;-69
2020/12/18 09:39:58;;;;;;;9.98;3.58;;;;;;;-8.78;91.43;101113.22;4986268;28;20103;-69
2020/12/18 09:42:45;;;;;;;9.00;2.60;;;;;;;-8.82;90.90;101104.69;4997100;28;20085;-69
2020/12/18 09:45:31;;;;;;;8.73;2.63;;;;;;;-8.77;91.82;101109.88;4997648;28;20100;-66
2020/12/18 09:48:18;;;;;;;9.00;2.50;;;;;;;-8.77;91.41;101108.19;4996787;28;20136;-66
2020/12/18 09:51:05;;;;;;;7.22;2.90;;;;;;;-8.76;91.64;101103.97;5008414;28;20050;-67
2020/12/18 09:53:51;;;;;;;7.32;2.42;;;;;;;-8.76;90.94;101101.44;4996505;28;20100;-70
2020/12/18 09:56:46;;;;;;;6.78;2.90;;;;;;;-8.72;90.72;101100.66;4993151;28;20444;-69
2020/12/18 09:59:32;;;;;;;7.63;2.50;;;;;;;-8.73;91.58;101098.97;4997767;28;20053;-70
2020/12/18 10:02:18;;;;;;;9.82;2.90;;;;;;;-8.72;91.58;101098.13;4997324;28;20111;-72
2020/12/18 10:05:05;;;;;;;7.63;2.85;;;;;;;-8.67;91.53;101105.84;4997292;28;20053;-69
2020/12/18 10:07:52;;;;;;;10.95;3.03;;;;;;;-8.72;90.80;101094.75;4978425;28;20386;-70
2020/12/18 10:10:39;;;;;;;5.97;2.88;;;;;;;-8.74;91.31;101093.84;4978272;28;20137;-69
2020/12/18 10:13:25;;;;;;;5.85;2.95;;;;;;;-8.73;90.76;101087.94;4977784;28;20081;-71
2020/12/18 10:16:12;;;;;;;9.85;3.53;;;;;;;-8.72;91.46;101082.06;4980171;28;20064;-71
2020/12/18 10:18:59;;;;;;;9.70;3.00;;;;;;;-8.73;90.17;101081.22;4978628;28;20129;-71
2020/12/18 10:21:45;;;;;;;11.02;3.22;;;;;;;-8.69;91.23;101085.50;4984707;28;20085;-72
2020/12/18 10:24:32;;;;;;;9.35;4.15;;;;;;;-8.66;91.09;101083.03;4997237;28;20085;-72
2020/12/18 10:27:19;;;;;;;10.27;3.97;;;;;;;-8.62;91.13;101086.50;4997535;28;20141;-72
2020/12/18 10:30:07;;;;;;;10.95;3.88;;;;;;;-8.62;91.04;101079.75;5010678;28;20050;-71
2020/12/18 10:32:53;;;;;;;12.50;3.30;;;;;;;-8.62;90.51;101086.50;5010851;28;20095;-70
2020/12/18 10:35:40;;;;;;;9.88;3.40;;;;;;;-8.60;90.11;101087.38;5010506;28;20444;-70
2020/12/18 10:38:28;;;;;;;11.45;3.28;;;;;;;-8.60;90.17;101082.28;4982521;28;20501;-69
2020/12/18 10:41:14;;;;;;;6.30;2.63;;;;;;;-8.59;91.05;101076.41;4988298;28;20059;-72
2020/12/18 10:44:02;;;;;;;8.07;2.75;;;;;;;-8.53;90.71;101079.06;4994650;28;20050;-71
2020/12/18 10:46:50;;;;;;;7.55;2.80;;;;;;;-8.52;90.95;101074.00;5003916;28;20060;-69
2020/12/18 10:49:37;;;;;;;8.55;2.90;;;;;;;-8.44;91.02;101075.84;4994327;28;20516;-71
2020/12/18 10:52:24;;;;;;;8.30;3.45;;;;;;;-8.53;90.15;101066.38;4984656;28;20119;-69
2020/12/18 10:55:11;;;;;;;10.60;3.13;;;;;;;-8.53;90.60;101064.72;4996365;28;20081;-69
2020/12/18 10:57:57;;;;;;;11.52;3.33;;;;;;;-8.54;90.89;101065.53;4985211;28;20096;-70
2020/12/18 11:00:44;;;;;;;9.50;2.97;;;;;;;-8.51;91.01;101054.59;4977238;28;20069;-70
2020/12/18 11:03:30;;;;;;;6.40;3.30;;;;;;;-8.54;91.12;101052.88;4977122;28;20058;-71
2020/12/18 11:06:17;;;;;;;14.13;2.95;;;;;;;-8.57;91.08;101054.47;4997073;28;20568;-71
2020/12/18 11:09:04;;;;;;;8.52;2.90;;;;;;;-8.57;91.22;101050.25;5014496;28;20062;-72
2020/12/18 11:11:53;;;;;;;7.30;2.47;;;;;;;-8.62;91.03;101056.06;5000009;28;20515;-69
2020/12/18 11:14:39;;;;;;;6.70;2.55;;;;;;;-8.61;91.04;101051.03;4998283;28;20145;-72
2020/12/18 11:17:27;;;;;;;5.82;2.20;;;;;;;-8.63;91.27;101044.22;4999222;28;20197;-70
2020/12/18 11:20:14;;;;;;;5.63;2.17;;;;;;;-8.66;90.65;101049.22;5000604;28;20069;-69
2020/12/18 11:23:01;;;;;;;6.65;2.72;;;;;;;-8.65;90.90;101053.47;5000571;28;20551;-71
2020/12/18 11:25:47;;;;;;;9.43;2.78;;;;;;;-8.74;90.30;101038.09;4988605;28;20050;-71
2020/12/18 11:28:33;;;;;;;7.47;2.50;;;;;;;-8.71;90.52;101053.38;4999926;28;20104;-71
2020/12/18 11:31:20;;;;;;;4.78;2.33;;;;;;;-8.74;89.84;101043.16;4994341;28;20465;-71
2020/12/18 11:34:06;;;;;;;6.40;2.67;;;;;;;-8.78;90.21;101050.72;4980433;28;20249;-70
2020/12/18 11:36:53;;;;;;;7.00;2.65;;;;;;;-8.75;89.99;101041.44;4993485;28;20515;-73
2020/12/18 11:39:39;;;;;;;6.20;2.60;;;;;;;-8.76;90.09;101045.66;5000322;28;20133;-70
2020/12/18 11:42:26;;;;;;;7.80;2.70;;;;;;;-8.75;90.64;101046.53;4997640;28;20112;-71
2020/12/18 11:45:12;;;;;;;6.28;2.67;;;;;;;-8.78;90.05;101039.72;4999645;28;20057;-70
2020/12/18 11:48:00;;;;;;;5.07;2.38;;;;;;;-8.79;90.80;101032.94;4994657;28;20097;-70
2020/12/18 11:50:47;;;;;;;9.15;2.90;;;;;;;-8.77;91.00;101037.22;4980378;28;20058;-69
2020/12/18 11:53:36;;;;;;;7.43;2.60;;;;;;;-8.75;90.48;101042.31;4980213;28;20096;-71
2020/12/18 11:56:22;;;;;;;8.23;3.35;;;;;;;-8.77;90.08;101037.22;4980080;28;20046;-71
2020/12/18 11:59:10;;;;;;;10.27;2.70;;;;;;;-8.81;89.80;101035.44;4995083;28;20050;-71
2020/12/18 12:01:56;;;;;;;8.23;2.85;;;;;;;-8.82;90.19;101033.75;4998244;28;20046;-69
2020/12/18 12:04:43;;;;;;;6.03;3.20;;;;;;;-8.86;89.52;101026.03;4999193;28;20382;-71
2020/12/18 12:07:32;;;;;;;8.98;2.63;;;;;;;-8.93;90.18;101016.59;4979000;28;20054;-71
2020/12/18 12:10:19;;;;;;;6.78;2.53;;;;;;;-8.91;90.48;101022.56;4999411;28;20049;-72
2020/12/18 12:13:06;;;;;;;9.60;2.80;;;;;;;-8.93;90.29;101025.06;4980617;28;20054;-72
2020/12/18 12:15:52;;;;;;;8.73;2.97;;;;;;;-8.92;89.72;101024.25;4979169;28;20081;-71
2020/12/18 12:18:39;;;;;;;10.65;2.58;;;;;;;-8.90;91.09;101025.13;4993382;28;20053;-71
2020/12/18 12:21:36;;;;;;;6.30;2.78;;;;;;;-8.91;90.46;101025.09;4997721;28;20503;-69
2020/12/18 12:24:23;;;;;;;7.03;2.60;;;;;;;-8.94;90.63;101025.88;4998760;28;20054;-72
2020/12/18 12:27:11;;;;;;;5.30;2.63;;;;;;;-8.96;90.35;101034.28;4998809;28;20586;-72
2020/12/18 12:29:57;;;;;;;6.53;2.88;;;;;;;-8.95;90.81;101029.25;4988510;28;20050;-71
2020/12/18 12:32:44;;;;;;;6.20;2.53;;;;;;;-8.93;90.16;101022.53;4979119;28;20047;-69
2020/12/18 12:35:30;;;;;;;5.95;2.35;;;;;;;-8.94;90.00;101019.97;4979887;28;20463;-69
2020/12/18 12:38:17;;;;;;;8.07;2.40;;;;;;;-8.94;90.73;101019.97;4996644;28;20050;-71
2020/12/18 12:41:04;;;;;;;8.05;2.53;;;;;;;-8.93;91.04;101014.06;4999261;28;20060;-73
2020/12/18 12:43:51;;;;;;;14.48;2.60;;;;;;;-8.98;89.94;101011.44;4998427;28;20868;-66
2020/12/18 12:46:38;;;;;;;8.57;3.00;;;;;;;-8.98;90.67;101013.13;4999021;28;20060;-69
2020/12/18 12:49:25;;;;;;;7.70;2.72;;;;;;;-9.04;89.64;101021.47;4998388;28;20100;-70
2020/12/18 12:52:11;;;;;;;10.85;3.50;;;;;;;-9.09;90.05;101018.00;4996252;28;20081;-70
2020/12/18 12:54:58;;;;;;;10.63;3.60;;;;;;;-9.13;90.15;101006.06;5011158;28;20054;-68
2020/12/18 12:57:45;;;;;;;10.27;4.60;;;;;;;-9.15;89.81;101008.59;4998776;28;20124;-69
2020/12/18 13:00:31;;;;;;;6.60;2.65;;;;;;;-9.18;89.74;101010.19;5009684;28;20045;-73
2020/12/18 13:03:18;;;;;;;4.95;2.35;;;;;;;-9.22;89.64;101013.50;4997845;28;20137;-69
2020/12/18 13:06:04;;;;;;;6.10;3.13;;;;;;;-9.25;89.95;101019.38;5009703;28;20452;-71
2020/12/18 13:08:51;;;;;;;7.22;2.85;;;;;;;-9.30;89.74;101013.34;4992853;28;20524;-69
2020/12/18 13:11:38;;;;;;;6.57;2.65;;;;;;;-9.30;89.54;101013.34;4998357;28;20512;-72
2020/12/18 13:14:26;;;;;;;7.43;2.85;;;;;;;-9.36;90.42;101003.91;4997161;28;20049;-70
2020/12/18 13:17:12;;;;;;;8.88;3.58;;;;;;;-9.37;89.53;100999.69;4995676;28;20579;-71
2020/12/18 13:19:59;;;;;;;10.23;2.63;;;;;;;-9.40;90.11;101001.28;4996719;28;20049;-71